sensor_id;sensor_type;location;lat;lon;timestamp;P1;durP1;ratioP1;P2;durP2;ratioP2
50337;SDS011;46221;51.178;5.900;2024-01-15T00:01:36;12.27;;;8.00;;
50337;SDS011;46221;51.178;5.900;2024-01-15T00:04:03;13.02;;;7.10;;
50337;SDS011;46221;51.178;5.900;2024-01-15T00:06:30;12.35;;;8.02;;
50337;SDS011;46221;51.178;5.900;2024-01-15T00:08:58;12.40;;;8.02;;
50337;SDS011;46221;51.178;5.900;2024-01-15T00:11:25;13.68;;;8.60;;
50337;SDS011;46221;51.178;5.900;2024-01-15T00:13:51;12.05;;;7.50;;
50337;SDS011;46221;51.178;5.900;2024-01-15T00:16:18;10.88;;;7.30;;
50337;SDS011;46221;51.178;5.900;2024-01-15T00:18:44;11.77;;;7.55;;
50337;SDS011;46221;51.178;5.900;2024-01-15T00:21:14;12.85;;;7.57;;
50337;SDS011;46221;51.178;5.900;2024-01-15T00:23:44;11.93;;;7.80;;
50337;SDS011;46221;51.178;5.900;2024-01-15T00:26:11;13.15;;;8.38;;
50337;SDS011;46221;51.178;5.900;2024-01-15T00:28:37;12.30;;;8.48;;
50337;SDS011;46221;51.178;5.900;2024-01-15T00:31:04;10.95;;;7.45;;
50337;SDS011;46221;51.178;5.900;2024-01-15T00:33:31;11.93;;;7.45;;
50337;SDS011;46221;51.178;5.900;2024-01-15T00:35:59;11.52;;;7.75;;
50337;SDS011;46221;51.178;5.900;2024-01-15T00:38:25;12.90;;;7.93;;
50337;SDS011;46221;51.178;5.900;2024-01-15T00:40:52;12.85;;;8.05;;
50337;SDS011;46221;51.178;5.900;2024-01-15T00:43:18;10.27;;;6.90;;
50337;SDS011;46221;51.178;5.900;2024-01-15T00:45:45;11.45;;;7.00;;
50337;SDS011;46221;51.178;5.900;2024-01-15T00:48:12;11.43;;;7.22;;
50337;SDS011;46221;51.178;5.900;2024-01-15T00:50:38;13.32;;;7.57;;
50337;SDS011;46221;51.178;5.900;2024-01-15T00:53:05;12.55;;;7.50;;
50337;SDS011;46221;51.178;5.900;2024-01-15T00:55:31;11.20;;;6.97;;
50337;SDS011;46221;51.178;5.900;2024-01-15T00:57:58;9.93;;;6.63;;
50337;SDS011;46221;51.178;5.900;2024-01-15T01:00:24;11.23;;;7.25;;
50337;SDS011;46221;51.178;5.900;2024-01-15T01:02:51;10.23;;;6.75;;
50337;SDS011;46221;51.178;5.900;2024-01-15T01:05:17;9.90;;;6.35;;
50337;SDS011;46221;51.178;5.900;2024-01-15T01:07:44;10.85;;;6.93;;
50337;SDS011;46221;51.178;5.900;2024-01-15T01:10:10;10.27;;;6.45;;
50337;SDS011;46221;51.178;5.900;2024-01-15T01:12:37;10.18;;;6.47;;
50337;SDS011;46221;51.178;5.900;2024-01-15T01:15:04;10.35;;;6.63;;
50337;SDS011;46221;51.178;5.900;2024-01-15T01:17:30;11.57;;;6.95;;
50337;SDS011;46221;51.178;5.900;2024-01-15T01:19:57;10.57;;;6.57;;
50337;SDS011;46221;51.178;5.900;2024-01-15T01:22:24;9.13;;;6.22;;
50337;SDS011;46221;51.178;5.900;2024-01-15T01:24:50;10.65;;;6.78;;
50337;SDS011;46221;51.178;5.900;2024-01-15T01:27:17;10.70;;;7.15;;
50337;SDS011;46221;51.178;5.900;2024-01-15T01:29:43;10.48;;;6.93;;
50337;SDS011;46221;51.178;5.900;2024-01-15T01:32:10;10.63;;;7.30;;
50337;SDS011;46221;51.178;5.900;2024-01-15T01:34:39;10.88;;;6.57;;
50337;SDS011;46221;51.178;5.900;2024-01-15T01:37:08;10.15;;;6.72;;
50337;SDS011;46221;51.178;5.900;2024-01-15T01:39:34;8.98;;;6.38;;
50337;SDS011;46221;51.178;5.900;2024-01-15T01:42:01;9.38;;;6.43;;
50337;SDS011;46221;51.178;5.900;2024-01-15T01:44:27;8.70;;;5.70;;
50337;SDS011;46221;51.178;5.900;2024-01-15T01:46:53;8.55;;;5.38;;
50337;SDS011;46221;51.178;5.900;2024-01-15T01:49:20;8.50;;;5.68;;
50337;SDS011;46221;51.178;5.900;2024-01-15T01:51:46;9.40;;;6.03;;
50337;SDS011;46221;51.178;5.900;2024-01-15T01:54:13;8.48;;;5.35;;
50337;SDS011;46221;51.178;5.900;2024-01-15T01:56:40;8.88;;;5.78;;
50337;SDS011;46221;51.178;5.900;2024-01-15T01:59:07;7.50;;;5.50;;
50337;SDS011;46221;51.178;5.900;2024-01-15T02:01:35;8.05;;;5.30;;
50337;SDS011;46221;51.178;5.900;2024-01-15T02:04:03;9.25;;;6.35;;
50337;SDS011;46221;51.178;5.900;2024-01-15T02:06:30;8.32;;;5.07;;
50337;SDS011;46221;51.178;5.900;2024-01-15T02:08:56;8.50;;;5.38;;
50337;SDS011;46221;51.178;5.900;2024-01-15T02:11:23;9.27;;;5.75;;
50337;SDS011;46221;51.178;5.900;2024-01-15T02:13:50;8.85;;;5.47;;
50337;SDS011;46221;51.178;5.900;2024-01-15T02:16:16;9.20;;;5.25;;
50337;SDS011;46221;51.178;5.900;2024-01-15T02:18:44;8.63;;;5.38;;
50337;SDS011;46221;51.178;5.900;2024-01-15T02:21:11;7.60;;;4.75;;
50337;SDS011;46221;51.178;5.900;2024-01-15T02:23:38;7.82;;;4.90;;
50337;SDS011;46221;51.178;5.900;2024-01-15T02:26:05;8.88;;;5.70;;
50337;SDS011;46221;51.178;5.900;2024-01-15T02:28:32;8.85;;;5.15;;
50337;SDS011;46221;51.178;5.900;2024-01-15T02:30:58;8.02;;;5.13;;
50337;SDS011;46221;51.178;5.900;2024-01-15T02:33:25;7.68;;;5.35;;
50337;SDS011;46221;51.178;5.900;2024-01-15T02:35:52;9.07;;;5.35;;
50337;SDS011;46221;51.178;5.900;2024-01-15T02:38:19;8.27;;;5.10;;
50337;SDS011;46221;51.178;5.900;2024-01-15T02:40:45;7.97;;;5.28;;
50337;SDS011;46221;51.178;5.900;2024-01-15T02:43:12;7.30;;;4.72;;
50337;SDS011;46221;51.178;5.900;2024-01-15T02:45:39;8.15;;;4.93;;
50337;SDS011;46221;51.178;5.900;2024-01-15T02:48:06;8.68;;;5.57;;
50337;SDS011;46221;51.178;5.900;2024-01-15T02:50:33;6.72;;;4.72;;
50337;SDS011;46221;51.178;5.900;2024-01-15T02:52:59;7.43;;;4.55;;
50337;SDS011;46221;51.178;5.900;2024-01-15T02:55:25;6.88;;;4.60;;
50337;SDS011;46221;51.178;5.900;2024-01-15T02:57:52;7.00;;;4.97;;
50337;SDS011;46221;51.178;5.900;2024-01-15T03:00:19;7.20;;;4.72;;
50337;SDS011;46221;51.178;5.900;2024-01-15T03:02:45;8.10;;;4.93;;
50337;SDS011;46221;51.178;5.900;2024-01-15T03:05:14;8.40;;;4.47;;
50337;SDS011;46221;51.178;5.900;2024-01-15T03:07:40;6.68;;;4.65;;
50337;SDS011;46221;51.178;5.900;2024-01-15T03:10:07;5.90;;;4.35;;
50337;SDS011;46221;51.178;5.900;2024-01-15T03:12:34;6.50;;;4.20;;
50337;SDS011;46221;51.178;5.900;2024-01-15T03:15:01;6.25;;;4.25;;
50337;SDS011;46221;51.178;5.900;2024-01-15T03:17:27;7.97;;;4.85;;
50337;SDS011;46221;51.178;5.900;2024-01-15T03:19:54;7.75;;;3.97;;
50337;SDS011;46221;51.178;5.900;2024-01-15T03:22:20;7.97;;;4.82;;
50337;SDS011;46221;51.178;5.900;2024-01-15T03:24:46;6.57;;;4.50;;
50337;SDS011;46221;51.178;5.900;2024-01-15T03:27:13;6.47;;;4.32;;
50337;SDS011;46221;51.178;5.900;2024-01-15T03:29:41;5.93;;;4.15;;
50337;SDS011;46221;51.178;5.900;2024-01-15T03:32:07;6.30;;;4.25;;
50337;SDS011;46221;51.178;5.900;2024-01-15T03:34:34;6.38;;;3.88;;
50337;SDS011;46221;51.178;5.900;2024-01-15T03:37:01;5.88;;;3.92;;
50337;SDS011;46221;51.178;5.900;2024-01-15T03:39:27;7.82;;;3.88;;
50337;SDS011;46221;51.178;5.900;2024-01-15T03:41:54;6.03;;;3.55;;
50337;SDS011;46221;51.178;5.900;2024-01-15T03:44:20;7.53;;;3.83;;
50337;SDS011;46221;51.178;5.900;2024-01-15T03:46:46;6.75;;;3.90;;
50337;SDS011;46221;51.178;5.900;2024-01-15T03:49:13;6.25;;;3.72;;
50337;SDS011;46221;51.178;5.900;2024-01-15T03:51:39;6.97;;;4.05;;
50337;SDS011;46221;51.178;5.900;2024-01-15T03:54:06;6.93;;;4.05;;
50337;SDS011;46221;51.178;5.900;2024-01-15T03:56:32;7.72;;;4.75;;
50337;SDS011;46221;51.178;5.900;2024-01-15T03:58:59;6.68;;;4.30;;
50337;SDS011;46221;51.178;5.900;2024-01-15T04:01:25;6.95;;;3.75;;
50337;SDS011;46221;51.178;5.900;2024-01-15T04:03:52;5.93;;;3.75;;
50337;SDS011;46221;51.178;5.900;2024-01-15T04:06:18;6.30;;;3.85;;
50337;SDS011;46221;51.178;5.900;2024-01-15T04:08:45;6.60;;;3.75;;
50337;SDS011;46221;51.178;5.900;2024-01-15T04:11:11;6.05;;;3.70;;
50337;SDS011;46221;51.178;5.900;2024-01-15T04:13:38;8.23;;;4.18;;
50337;SDS011;46221;51.178;5.900;2024-01-15T04:16:07;6.95;;;4.53;;
50337;SDS011;46221;51.178;5.900;2024-01-15T04:18:34;6.40;;;3.40;;
50337;SDS011;46221;51.178;5.900;2024-01-15T04:21:00;5.68;;;3.25;;
50337;SDS011;46221;51.178;5.900;2024-01-15T04:23:27;6.15;;;4.05;;
50337;SDS011;46221;51.178;5.900;2024-01-15T04:25:54;5.07;;;3.30;;
50337;SDS011;46221;51.178;5.900;2024-01-15T04:28:20;5.22;;;3.17;;
50337;SDS011;46221;51.178;5.900;2024-01-15T04:30:47;5.45;;;3.17;;
50337;SDS011;46221;51.178;5.900;2024-01-15T04:33:13;5.68;;;3.53;;
50337;SDS011;46221;51.178;5.900;2024-01-15T04:35:40;5.97;;;3.30;;
50337;SDS011;46221;51.178;5.900;2024-01-15T04:38:06;4.95;;;2.85;;
50337;SDS011;46221;51.178;5.900;2024-01-15T04:40:33;5.32;;;3.35;;
50337;SDS011;46221;51.178;5.900;2024-01-15T04:42:59;4.40;;;2.92;;
50337;SDS011;46221;51.178;5.900;2024-01-15T04:45:26;5.93;;;3.17;;
50337;SDS011;46221;51.178;5.900;2024-01-15T04:47:55;4.70;;;2.65;;
50337;SDS011;46221;51.178;5.900;2024-01-15T04:50:24;5.90;;;2.80;;
50337;SDS011;46221;51.178;5.900;2024-01-15T04:52:51;5.43;;;2.95;;
50337;SDS011;46221;51.178;5.900;2024-01-15T04:55:17;4.55;;;2.75;;
50337;SDS011;46221;51.178;5.900;2024-01-15T04:57:44;4.63;;;3.15;;
50337;SDS011;46221;51.178;5.900;2024-01-15T05:00:11;4.22;;;2.67;;
50337;SDS011;46221;51.178;5.900;2024-01-15T05:02:38;4.95;;;2.78;;
50337;SDS011;46221;51.178;5.900;2024-01-15T05:05:07;5.38;;;2.80;;
50337;SDS011;46221;51.178;5.900;2024-01-15T05:07:34;4.82;;;3.08;;
50337;SDS011;46221;51.178;5.900;2024-01-15T05:10:01;5.55;;;3.00;;
50337;SDS011;46221;51.178;5.900;2024-01-15T05:12:27;6.13;;;2.75;;
50337;SDS011;46221;51.178;5.900;2024-01-15T05:14:54;5.88;;;2.67;;
50337;SDS011;46221;51.178;5.900;2024-01-15T05:17:20;5.45;;;2.90;;
50337;SDS011;46221;51.178;5.900;2024-01-15T05:19:47;4.88;;;3.00;;
50337;SDS011;46221;51.178;5.900;2024-01-15T05:22:13;5.57;;;3.08;;
50337;SDS011;46221;51.178;5.900;2024-01-15T05:24:40;5.60;;;2.72;;
50337;SDS011;46221;51.178;5.900;2024-01-15T05:27:06;4.68;;;2.72;;
50337;SDS011;46221;51.178;5.900;2024-01-15T05:29:33;5.97;;;3.20;;
50337;SDS011;46221;51.178;5.900;2024-01-15T05:32:00;4.85;;;2.47;;
50337;SDS011;46221;51.178;5.900;2024-01-15T05:34:28;7.13;;;2.97;;
50337;SDS011;46221;51.178;5.900;2024-01-15T05:36:54;5.50;;;2.80;;
50337;SDS011;46221;51.178;5.900;2024-01-15T05:39:20;4.63;;;2.80;;
50337;SDS011;46221;51.178;5.900;2024-01-15T05:41:49;5.25;;;2.40;;
50337;SDS011;46221;51.178;5.900;2024-01-15T05:44:16;4.43;;;2.60;;
50337;SDS011;46221;51.178;5.900;2024-01-15T05:46:42;4.55;;;2.95;;
50337;SDS011;46221;51.178;5.900;2024-01-15T05:49:08;5.38;;;3.13;;
50337;SDS011;46221;51.178;5.900;2024-01-15T05:51:35;4.75;;;2.70;;
50337;SDS011;46221;51.178;5.900;2024-01-15T05:54:02;3.78;;;2.50;;
50337;SDS011;46221;51.178;5.900;2024-01-15T05:56:28;4.30;;;3.00;;
50337;SDS011;46221;51.178;5.900;2024-01-15T05:58:54;4.72;;;2.55;;
50337;SDS011;46221;51.178;5.900;2024-01-15T06:01:21;4.78;;;2.63;;
50337;SDS011;46221;51.178;5.900;2024-01-15T06:03:48;4.35;;;2.42;;
50337;SDS011;46221;51.178;5.900;2024-01-15T06:06:14;5.43;;;2.67;;
50337;SDS011;46221;51.178;5.900;2024-01-15T06:08:41;4.30;;;2.63;;
50337;SDS011;46221;51.178;5.900;2024-01-15T06:11:07;4.38;;;3.08;;
50337;SDS011;46221;51.178;5.900;2024-01-15T06:13:34;5.20;;;2.75;;
50337;SDS011;46221;51.178;5.900;2024-01-15T06:16:00;4.78;;;2.60;;
50337;SDS011;46221;51.178;5.900;2024-01-15T06:18:27;4.60;;;2.45;;
50337;SDS011;46221;51.178;5.900;2024-01-15T06:20:53;5.50;;;2.42;;
50337;SDS011;46221;51.178;5.900;2024-01-15T06:23:20;5.20;;;2.58;;
50337;SDS011;46221;51.178;5.900;2024-01-15T06:25:47;4.97;;;2.50;;
50337;SDS011;46221;51.178;5.900;2024-01-15T06:28:13;4.18;;;2.63;;
50337;SDS011;46221;51.178;5.900;2024-01-15T06:30:40;4.68;;;2.38;;
50337;SDS011;46221;51.178;5.900;2024-01-15T06:33:07;7.03;;;2.78;;
50337;SDS011;46221;51.178;5.900;2024-01-15T06:35:33;3.95;;;2.40;;
50337;SDS011;46221;51.178;5.900;2024-01-15T06:38:00;4.80;;;2.50;;
50337;SDS011;46221;51.178;5.900;2024-01-15T06:40:27;4.30;;;2.65;;
50337;SDS011;46221;51.178;5.900;2024-01-15T06:42:53;5.18;;;2.22;;
50337;SDS011;46221;51.178;5.900;2024-01-15T06:45:20;4.93;;;2.67;;
50337;SDS011;46221;51.178;5.900;2024-01-15T06:47:46;3.45;;;2.15;;
50337;SDS011;46221;51.178;5.900;2024-01-15T06:50:12;4.90;;;2.53;;
50337;SDS011;46221;51.178;5.900;2024-01-15T06:52:39;5.07;;;2.50;;
50337;SDS011;46221;51.178;5.900;2024-01-15T06:55:05;5.03;;;2.70;;
50337;SDS011;46221;51.178;5.900;2024-01-15T06:57:32;5.88;;;3.10;;
50337;SDS011;46221;51.178;5.900;2024-01-15T06:59:59;4.75;;;2.55;;
50337;SDS011;46221;51.178;5.900;2024-01-15T07:02:25;5.22;;;2.50;;
50337;SDS011;46221;51.178;5.900;2024-01-15T07:04:53;4.95;;;2.78;;
50337;SDS011;46221;51.178;5.900;2024-01-15T07:07:19;5.28;;;2.63;;
50337;SDS011;46221;51.178;5.900;2024-01-15T07:09:46;5.80;;;2.60;;
50337;SDS011;46221;51.178;5.900;2024-01-15T07:12:12;4.85;;;2.42;;
50337;SDS011;46221;51.178;5.900;2024-01-15T07:14:39;5.13;;;2.97;;
50337;SDS011;46221;51.178;5.900;2024-01-15T07:17:05;5.35;;;2.83;;
50337;SDS011;46221;51.178;5.900;2024-01-15T07:19:32;5.60;;;2.90;;
50337;SDS011;46221;51.178;5.900;2024-01-15T07:21:59;5.95;;;3.45;;
50337;SDS011;46221;51.178;5.900;2024-01-15T07:24:26;5.72;;;2.80;;
50337;SDS011;46221;51.178;5.900;2024-01-15T07:26:53;4.82;;;2.67;;
50337;SDS011;46221;51.178;5.900;2024-01-15T07:29:19;4.93;;;3.13;;
50337;SDS011;46221;51.178;5.900;2024-01-15T07:31:52;5.95;;;2.95;;
50337;SDS011;46221;51.178;5.900;2024-01-15T07:34:19;7.10;;;2.53;;
50337;SDS011;46221;51.178;5.900;2024-01-15T07:36:46;6.53;;;2.70;;
50337;SDS011;46221;51.178;5.900;2024-01-15T07:39:13;6.22;;;2.83;;
50337;SDS011;46221;51.178;5.900;2024-01-15T07:41:40;7.30;;;2.75;;
50337;SDS011;46221;51.178;5.900;2024-01-15T07:44:06;4.97;;;3.05;;
50337;SDS011;46221;51.178;5.900;2024-01-15T07:46:33;5.47;;;2.90;;
50337;SDS011;46221;51.178;5.900;2024-01-15T07:48:59;5.13;;;3.30;;
50337;SDS011;46221;51.178;5.900;2024-01-15T07:51:26;5.80;;;3.10;;
50337;SDS011;46221;51.178;5.900;2024-01-15T07:53:53;5.68;;;3.22;;
50337;SDS011;46221;51.178;5.900;2024-01-15T07:56:20;7.90;;;3.38;;
50337;SDS011;46221;51.178;5.900;2024-01-15T07:58:47;6.15;;;3.38;;
50337;SDS011;46221;51.178;5.900;2024-01-15T08:01:14;6.80;;;3.75;;
50337;SDS011;46221;51.178;5.900;2024-01-15T08:03:40;7.40;;;3.60;;
50337;SDS011;46221;51.178;5.900;2024-01-15T08:06:07;6.10;;;3.38;;
50337;SDS011;46221;51.178;5.900;2024-01-15T08:08:36;5.55;;;3.47;;
50337;SDS011;46221;51.178;5.900;2024-01-15T08:11:03;6.82;;;3.92;;
50337;SDS011;46221;51.178;5.900;2024-01-15T08:13:29;6.75;;;4.28;;
50337;SDS011;46221;51.178;5.900;2024-01-15T08:15:57;6.55;;;3.72;;
50337;SDS011;46221;51.178;5.900;2024-01-15T08:18:23;7.43;;;3.70;;
50337;SDS011;46221;51.178;5.900;2024-01-15T08:20:50;6.80;;;3.80;;
50337;SDS011;46221;51.178;5.900;2024-01-15T08:23:18;5.97;;;3.72;;
50337;SDS011;46221;51.178;5.900;2024-01-15T08:25:47;5.40;;;3.53;;
50337;SDS011;46221;51.178;5.900;2024-01-15T08:28:14;5.25;;;3.30;;
50337;SDS011;46221;51.178;5.900;2024-01-15T08:30:40;5.32;;;3.00;;
50337;SDS011;46221;51.178;5.900;2024-01-15T08:33:07;6.13;;;2.88;;
50337;SDS011;46221;51.178;5.900;2024-01-15T08:35:46;5.60;;;2.90;;
50337;SDS011;46221;51.178;5.900;2024-01-15T08:38:12;5.35;;;2.75;;
50337;SDS011;46221;51.178;5.900;2024-01-15T08:40:38;4.20;;;2.47;;
50337;SDS011;46221;51.178;5.900;2024-01-15T08:43:05;3.72;;;2.00;;
50337;SDS011;46221;51.178;5.900;2024-01-15T08:45:33;3.97;;;2.17;;
50337;SDS011;46221;51.178;5.900;2024-01-15T08:47:59;3.95;;;2.17;;
50337;SDS011;46221;51.178;5.900;2024-01-15T08:50:27;4.40;;;2.10;;
50337;SDS011;46221;51.178;5.900;2024-01-15T08:52:54;3.55;;;2.30;;
50337;SDS011;46221;51.178;5.900;2024-01-15T08:55:20;3.63;;;1.90;;
50337;SDS011;46221;51.178;5.900;2024-01-15T08:57:48;3.20;;;2.03;;
50337;SDS011;46221;51.178;5.900;2024-01-15T09:00:15;3.20;;;2.00;;
50337;SDS011;46221;51.178;5.900;2024-01-15T09:02:42;5.20;;;1.73;;
50337;SDS011;46221;51.178;5.900;2024-01-15T09:05:08;2.63;;;1.75;;
50337;SDS011;46221;51.178;5.900;2024-01-15T09:07:35;3.67;;;1.30;;
50337;SDS011;46221;51.178;5.900;2024-01-15T09:10:02;4.57;;;1.83;;
50337;SDS011;46221;51.178;5.900;2024-01-15T09:12:33;2.60;;;1.45;;
50337;SDS011;46221;51.178;5.900;2024-01-15T09:15:00;3.55;;;1.73;;
50337;SDS011;46221;51.178;5.900;2024-01-15T09:17:31;3.40;;;1.77;;
50337;SDS011;46221;51.178;5.900;2024-01-15T09:19:59;2.38;;;1.10;;
50337;SDS011;46221;51.178;5.900;2024-01-15T09:22:27;2.83;;;1.55;;
50337;SDS011;46221;51.178;5.900;2024-01-15T09:24:55;2.95;;;1.65;;
50337;SDS011;46221;51.178;5.900;2024-01-15T09:27:22;2.80;;;1.58;;
50337;SDS011;46221;51.178;5.900;2024-01-15T09:29:50;2.53;;;1.45;;
50337;SDS011;46221;51.178;5.900;2024-01-15T09:32:16;3.08;;;1.65;;
50337;SDS011;46221;51.178;5.900;2024-01-15T09:34:46;2.47;;;1.33;;
50337;SDS011;46221;51.178;5.900;2024-01-15T09:37:14;2.08;;;1.27;;
50337;SDS011;46221;51.178;5.900;2024-01-15T09:40:00;3.08;;;1.40;;
50337;SDS011;46221;51.178;5.900;2024-01-15T09:42:30;1.95;;;1.20;;
50337;SDS011;46221;51.178;5.900;2024-01-15T09:45:00;2.30;;;1.30;;
50337;SDS011;46221;51.178;5.900;2024-01-15T09:47:27;3.67;;;1.33;;
50337;SDS011;46221;51.178;5.900;2024-01-15T09:49:55;3.10;;;1.35;;
50337;SDS011;46221;51.178;5.900;2024-01-15T09:52:24;2.10;;;1.05;;
50337;SDS011;46221;51.178;5.900;2024-01-15T09:54:51;2.88;;;1.02;;
50337;SDS011;46221;51.178;5.900;2024-01-15T09:57:21;3.38;;;1.20;;
50337;SDS011;46221;51.178;5.900;2024-01-15T09:59:47;2.33;;;1.00;;
50337;SDS011;46221;51.178;5.900;2024-01-15T10:02:14;2.00;;;1.10;;
50337;SDS011;46221;51.178;5.900;2024-01-15T10:04:44;2.33;;;1.23;;
50337;SDS011;46221;51.178;5.900;2024-01-15T10:07:12;2.30;;;1.25;;
50337;SDS011;46221;51.178;5.900;2024-01-15T10:09:41;3.38;;;1.00;;
50337;SDS011;46221;51.178;5.900;2024-01-15T10:12:07;1.98;;;1.15;;
50337;SDS011;46221;51.178;5.900;2024-01-15T10:14:34;2.47;;;1.50;;
50337;SDS011;46221;51.178;5.900;2024-01-15T10:17:08;4.00;;;1.30;;
50337;SDS011;46221;51.178;5.900;2024-01-15T10:22:08;2.28;;;1.20;;
50337;SDS011;46221;51.178;5.900;2024-01-15T10:24:39;2.08;;;1.00;;
50337;SDS011;46221;51.178;5.900;2024-01-15T10:27:07;2.03;;;0.90;;
50337;SDS011;46221;51.178;5.900;2024-01-15T10:29:33;1.90;;;1.00;;
50337;SDS011;46221;51.178;5.900;2024-01-15T10:32:00;1.73;;;1.00;;
50337;SDS011;46221;51.178;5.900;2024-01-15T10:34:27;3.70;;;1.17;;
50337;SDS011;46221;51.178;5.900;2024-01-15T10:36:54;1.80;;;0.90;;
50337;SDS011;46221;51.178;5.900;2024-01-15T10:39:23;2.10;;;1.10;;
50337;SDS011;46221;51.178;5.900;2024-01-15T10:41:50;1.88;;;1.00;;
50337;SDS011;46221;51.178;5.900;2024-01-15T10:44:17;1.45;;;0.90;;
50337;SDS011;46221;51.178;5.900;2024-01-15T10:46:45;1.58;;;0.90;;
50337;SDS011;46221;51.178;5.900;2024-01-15T10:49:11;1.77;;;1.10;;
50337;SDS011;46221;51.178;5.900;2024-01-15T10:51:38;1.77;;;1.10;;
50337;SDS011;46221;51.178;5.900;2024-01-15T10:54:05;1.95;;;1.00;;
50337;SDS011;46221;51.178;5.900;2024-01-15T10:56:31;3.28;;;1.38;;
50337;SDS011;46221;51.178;5.900;2024-01-15T10:58:59;2.95;;;1.88;;
50337;SDS011;46221;51.178;5.900;2024-01-15T11:01:26;2.67;;;1.20;;
50337;SDS011;46221;51.178;5.900;2024-01-15T11:03:56;2.40;;;1.30;;
50337;SDS011;46221;51.178;5.900;2024-01-15T11:06:24;2.65;;;1.50;;
50337;SDS011;46221;51.178;5.900;2024-01-15T11:08:51;2.15;;;1.20;;
50337;SDS011;46221;51.178;5.900;2024-01-15T11:11:18;2.25;;;1.25;;
50337;SDS011;46221;51.178;5.900;2024-01-15T11:13:47;4.35;;;1.65;;
50337;SDS011;46221;51.178;5.900;2024-01-15T11:16:15;2.60;;;1.30;;
50337;SDS011;46221;51.178;5.900;2024-01-15T11:21:24;2.80;;;1.30;;
50337;SDS011;46221;51.178;5.900;2024-01-15T11:23:53;1.98;;;1.20;;
50337;SDS011;46221;51.178;5.900;2024-01-15T11:28:55;3.40;;;1.27;;
50337;SDS011;46221;51.178;5.900;2024-01-15T11:34:15;2.78;;;1.20;;
50337;SDS011;46221;51.178;5.900;2024-01-15T11:42:00;3.30;;;1.52;;
50337;SDS011;46221;51.178;5.900;2024-01-15T11:44:26;4.97;;;1.70;;
50337;SDS011;46221;51.178;5.900;2024-01-15T11:46:59;3.75;;;1.33;;
50337;SDS011;46221;51.178;5.900;2024-01-15T11:50:12;3.00;;;1.30;;
50337;SDS011;46221;51.178;5.900;2024-01-15T11:52:15;5.10;;;1.52;;
50337;SDS011;46221;51.178;5.900;2024-01-15T11:54:45;2.95;;;1.58;;
50337;SDS011;46221;51.178;5.900;2024-01-15T11:57:17;4.22;;;1.60;;
50337;SDS011;46221;51.178;5.900;2024-01-15T11:59:46;2.83;;;1.17;;
50337;SDS011;46221;51.178;5.900;2024-01-15T12:02:13;2.97;;;1.48;;
50337;SDS011;46221;51.178;5.900;2024-01-15T12:04:41;3.33;;;1.45;;
50337;SDS011;46221;51.178;5.900;2024-01-15T12:07:07;4.55;;;1.40;;
50337;SDS011;46221;51.178;5.900;2024-01-15T12:09:34;3.38;;;1.20;;
50337;SDS011;46221;51.178;5.900;2024-01-15T12:12:07;4.10;;;1.60;;
50337;SDS011;46221;51.178;5.900;2024-01-15T12:14:37;2.55;;;1.08;;
50337;SDS011;46221;51.178;5.900;2024-01-15T12:17:04;3.90;;;1.38;;
50337;SDS011;46221;51.178;5.900;2024-01-15T12:19:31;2.75;;;0.95;;
50337;SDS011;46221;51.178;5.900;2024-01-15T12:21:58;2.83;;;1.20;;
50337;SDS011;46221;51.178;5.900;2024-01-15T12:24:24;3.05;;;1.10;;
50337;SDS011;46221;51.178;5.900;2024-01-15T12:26:51;2.80;;;1.15;;
50337;SDS011;46221;51.178;5.900;2024-01-15T12:29:19;2.33;;;0.95;;
50337;SDS011;46221;51.178;5.900;2024-01-15T12:31:47;1.75;;;0.90;;
50337;SDS011;46221;51.178;5.900;2024-01-15T12:34:17;4.75;;;1.30;;
50337;SDS011;46221;51.178;5.900;2024-01-15T12:36:46;2.28;;;0.80;;
50337;SDS011;46221;51.178;5.900;2024-01-15T12:39:13;1.75;;;0.80;;
50337;SDS011;46221;51.178;5.900;2024-01-15T12:41:39;1.83;;;0.80;;
50337;SDS011;46221;51.178;5.900;2024-01-15T12:44:06;2.97;;;0.88;;
50337;SDS011;46221;51.178;5.900;2024-01-15T12:46:33;4.93;;;0.90;;
50337;SDS011;46221;51.178;5.900;2024-01-15T12:48:59;2.22;;;0.65;;
50337;SDS011;46221;51.178;5.900;2024-01-15T12:51:26;1.65;;;0.80;;
50337;SDS011;46221;51.178;5.900;2024-01-15T12:53:53;2.42;;;0.75;;
50337;SDS011;46221;51.178;5.900;2024-01-15T12:56:19;2.60;;;0.88;;
50337;SDS011;46221;51.178;5.900;2024-01-15T12:58:46;2.63;;;0.75;;
50337;SDS011;46221;51.178;5.900;2024-01-15T13:01:13;1.70;;;0.85;;
50337;SDS011;46221;51.178;5.900;2024-01-15T13:03:39;2.75;;;0.93;;
50337;SDS011;46221;51.178;5.900;2024-01-15T13:06:06;1.90;;;1.00;;
50337;SDS011;46221;51.178;5.900;2024-01-15T13:08:33;1.35;;;0.60;;
50337;SDS011;46221;51.178;5.900;2024-01-15T13:10:59;1.55;;;0.63;;
50337;SDS011;46221;51.178;5.900;2024-01-15T13:13:26;1.45;;;0.73;;
50337;SDS011;46221;51.178;5.900;2024-01-15T13:15:54;1.42;;;0.70;;
50337;SDS011;46221;51.178;5.900;2024-01-15T13:18:20;2.20;;;0.73;;
50337;SDS011;46221;51.178;5.900;2024-01-15T13:20:48;1.20;;;0.60;;
50337;SDS011;46221;51.178;5.900;2024-01-15T13:23:15;2.58;;;0.70;;
50337;SDS011;46221;51.178;5.900;2024-01-15T13:25:41;2.53;;;0.90;;
50337;SDS011;46221;51.178;5.900;2024-01-15T13:28:08;2.72;;;0.93;;
50337;SDS011;46221;51.178;5.900;2024-01-15T13:30:35;1.02;;;0.60;;
50337;SDS011;46221;51.178;5.900;2024-01-15T13:33:01;8.13;;;0.98;;
50337;SDS011;46221;51.178;5.900;2024-01-15T13:35:31;1.52;;;0.70;;
50337;SDS011;46221;51.178;5.900;2024-01-15T13:37:58;3.83;;;0.95;;
50337;SDS011;46221;51.178;5.900;2024-01-15T13:40:24;1.65;;;0.60;;
50337;SDS011;46221;51.178;5.900;2024-01-15T13:42:51;4.22;;;0.80;;
50337;SDS011;46221;51.178;5.900;2024-01-15T13:45:19;1.92;;;0.73;;
50337;SDS011;46221;51.178;5.900;2024-01-15T13:47:46;1.40;;;0.60;;
50337;SDS011;46221;51.178;5.900;2024-01-15T13:50:13;2.85;;;0.73;;
50337;SDS011;46221;51.178;5.900;2024-01-15T13:52:40;0.77;;;0.50;;
50337;SDS011;46221;51.178;5.900;2024-01-15T13:55:07;2.90;;;0.60;;
50337;SDS011;46221;51.178;5.900;2024-01-15T13:57:36;2.20;;;0.90;;
50337;SDS011;46221;51.178;5.900;2024-01-15T14:00:03;0.75;;;0.60;;
50337;SDS011;46221;51.178;5.900;2024-01-15T14:02:35;1.08;;;0.52;;
50337;SDS011;46221;51.178;5.900;2024-01-15T14:05:02;1.95;;;0.50;;
50337;SDS011;46221;51.178;5.900;2024-01-15T14:07:28;1.15;;;0.70;;
50337;SDS011;46221;51.178;5.900;2024-01-15T14:09:55;1.60;;;0.70;;
50337;SDS011;46221;51.178;5.900;2024-01-15T14:12:21;1.73;;;0.85;;
50337;SDS011;46221;51.178;5.900;2024-01-15T14:14:48;1.58;;;0.60;;
50337;SDS011;46221;51.178;5.900;2024-01-15T14:17:15;1.05;;;0.70;;
50337;SDS011;46221;51.178;5.900;2024-01-15T14:19:41;0.95;;;0.82;;
50337;SDS011;46221;51.178;5.900;2024-01-15T14:22:09;2.15;;;0.80;;
50337;SDS011;46221;51.178;5.900;2024-01-15T14:24:36;1.67;;;0.80;;
50337;SDS011;46221;51.178;5.900;2024-01-15T14:27:02;1.95;;;0.70;;
50337;SDS011;46221;51.178;5.900;2024-01-15T14:29:29;1.52;;;0.55;;
50337;SDS011;46221;51.178;5.900;2024-01-15T14:31:56;1.90;;;0.70;;
50337;SDS011;46221;51.178;5.900;2024-01-15T14:34:22;0.85;;;0.40;;
50337;SDS011;46221;51.178;5.900;2024-01-15T14:36:50;0.88;;;0.50;;
50337;SDS011;46221;51.178;5.900;2024-01-15T14:39:23;2.80;;;0.57;;
50337;SDS011;46221;51.178;5.900;2024-01-15T14:41:50;2.08;;;0.82;;
50337;SDS011;46221;51.178;5.900;2024-01-15T14:44:17;1.23;;;0.70;;
50337;SDS011;46221;51.178;5.900;2024-01-15T14:46:44;1.35;;;0.70;;
50337;SDS011;46221;51.178;5.900;2024-01-15T14:49:10;0.98;;;0.45;;
50337;SDS011;46221;51.178;5.900;2024-01-15T14:51:37;1.33;;;0.60;;
50337;SDS011;46221;51.178;5.900;2024-01-15T14:54:04;1.00;;;0.57;;
50337;SDS011;46221;51.178;5.900;2024-01-15T14:56:30;1.95;;;0.50;;
50337;SDS011;46221;51.178;5.900;2024-01-15T14:58:57;0.93;;;0.40;;
50337;SDS011;46221;51.178;5.900;2024-01-15T15:01:24;0.73;;;0.40;;